createdAt,value
2018-08-27T00:01:04.000Z,93.90
2018-08-27T00:03:32.468Z,94.20
2018-08-27T00:06:00.973Z,94.70
2018-08-27T00:08:29.461Z,94.60
2018-08-27T00:10:57.981Z,95.30
2018-08-27T00:13:26.469Z,95.20
2018-08-27T00:15:54.976Z,95.50
2018-08-27T00:18:23.452Z,96.40
2018-08-27T00:20:51.951Z,96.30
2018-08-27T00:23:20.444Z,97.00
2018-08-27T00:25:48.948Z,97.20
2018-08-27T00:28:17.432Z,97.50
2018-08-27T00:30:45.908Z,98.00
2018-08-27T00:33:14.372Z,99.10
2018-08-27T00:35:42.869Z,99.00
2018-08-27T00:38:11.360Z,98.80
2018-08-27T00:40:39.855Z,98.50
2018-08-27T00:43:08.521Z,98.70
2018-08-27T00:45:37.236Z,98.00
2018-08-27T00:48:05.704Z,98.50
2018-08-27T00:50:34.251Z,98.00
2018-08-27T00:53:02.756Z,98.30
2018-08-27T00:55:31.249Z,98.20
2018-08-27T00:57:59.750Z,98.50
2018-08-27T01:00:28.224Z,99.10
2018-08-27T01:02:56.796Z,99.00
2018-08-27T01:05:25.280Z,99.00
2018-08-27T01:07:53.788Z,99.20
2018-08-27T01:10:22.260Z,99.90
2018-08-27T01:12:50.777Z,99.80
2018-08-27T01:15:19.268Z,99.90
2018-08-27T01:17:47.768Z,99.90
2018-08-27T01:20:16.235Z,99.90
2018-08-27T01:22:44.728Z,99.90
2018-08-27T01:25:13.192Z,99.90
2018-08-27T01:27:41.692Z,99.90
2018-08-27T01:30:10.217Z,99.90
2018-08-27T01:32:38.710Z,99.90
2018-08-27T01:35:07.197Z,99.90
2018-08-27T01:37:35.694Z,99.90
2018-08-27T01:40:04.212Z,99.90
2018-08-27T01:42:32.680Z,99.90
2018-08-27T01:45:01.163Z,99.90
2018-08-27T01:47:29.652Z,99.90
2018-08-27T01:49:58.146Z,99.90
2018-08-27T01:52:26.608Z,99.90
2018-08-27T01:54:55.096Z,99.90
2018-08-27T01:57:23.584Z,99.90
2018-08-27T01:59:52.094Z,99.90
2018-08-27T02:02:20.657Z,99.90
2018-08-27T02:04:49.157Z,99.90
2018-08-27T02:07:17.626Z,99.90
2018-08-27T02:09:46.119Z,99.90
2018-08-27T02:12:14.559Z,99.90
2018-08-27T02:14:44.756Z,99.90
2018-08-27T02:17:13.207Z,99.90
2018-08-27T02:19:41.652Z,99.90
2018-08-27T02:22:10.711Z,99.90
2018-08-27T02:24:39.164Z,99.90
2018-08-27T02:27:07.640Z,99.90
2018-08-27T02:29:36.068Z,99.90
2018-08-27T02:32:04.559Z,99.90
2018-08-27T02:34:33.004Z,99.90
2018-08-27T02:37:01.470Z,99.90
2018-08-27T02:39:29.908Z,99.90
2018-08-27T02:41:58.356Z,99.90
2018-08-27T02:44:26.783Z,99.90
2018-08-27T02:46:55.243Z,99.90
2018-08-27T02:49:23.667Z,99.90
2018-08-27T02:51:52.123Z,99.90
2018-08-27T02:54:20.568Z,99.90
2018-08-27T02:56:49.036Z,99.90
2018-08-27T02:59:17.460Z,99.90
2018-08-27T03:01:45.924Z,99.90
2018-08-27T03:04:14.355Z,99.90
2018-08-27T03:06:42.807Z,99.90
2018-08-27T03:09:11.243Z,99.90
2018-08-27T03:11:39.679Z,99.90
2018-08-27T03:14:08.156Z,99.90
2018-08-27T03:16:36.591Z,99.90
2018-08-27T03:19:05.144Z,99.90
2018-08-27T03:21:33.577Z,99.90
2018-08-27T03:24:02.055Z,99.90
2018-08-27T03:26:30.479Z,99.90
2018-08-27T03:28:58.928Z,99.90
2018-08-27T03:31:27.355Z,99.90
2018-08-27T03:33:55.811Z,99.90
2018-08-27T03:36:24.251Z,99.90
2018-08-27T03:38:52.716Z,99.90
2018-08-27T03:41:21.139Z,99.90
2018-08-27T03:43:49.581Z,99.90
2018-08-27T03:46:18.040Z,99.90
2018-08-27T03:48:46.476Z,99.90
2018-08-27T03:51:14.926Z,99.90
2018-08-27T03:53:43.377Z,99.90
2018-08-27T03:56:11.848Z,99.90
2018-08-27T03:58:40.282Z,99.90
2018-08-27T04:01:08.733Z,99.90
2018-08-27T04:03:37.192Z,99.90
2018-08-27T04:06:05.668Z,99.90
2018-08-27T04:08:34.139Z,99.90
2018-08-27T04:11:02.604Z,99.90
2018-08-27T04:13:31.031Z,99.90
2018-08-27T04:15:59.484Z,99.90
2018-08-27T04:18:27.932Z,99.90
2018-08-27T04:20:56.421Z,99.90
2018-08-27T04:23:24.851Z,99.90
2018-08-27T04:25:53.302Z,99.90
2018-08-27T04:28:21.751Z,99.90
2018-08-27T04:30:50.207Z,99.90
2018-08-27T04:33:18.687Z,99.90
2018-08-27T04:35:47.123Z,99.90
2018-08-27T04:38:15.644Z,99.90
2018-08-27T04:40:44.095Z,99.90
2018-08-27T04:43:12.567Z,99.90
2018-08-27T04:45:41.033Z,99.90
2018-08-27T04:48:09.501Z,99.90
2018-08-27T04:50:37.976Z,99.90
2018-08-27T04:53:06.488Z,99.90
2018-08-27T04:55:34.928Z,99.90
2018-08-27T04:58:03.383Z,99.90
2018-08-27T05:00:34.432Z,99.90
2018-08-27T05:03:02.923Z,99.90
2018-08-27T05:05:31.364Z,99.90
2018-08-27T05:07:59.813Z,99.90
2018-08-27T05:10:28.244Z,99.90
2018-08-27T05:12:56.671Z,99.90
2018-08-27T05:15:25.119Z,99.90
2018-08-27T05:17:53.548Z,99.90
2018-08-27T05:20:22.008Z,99.90
2018-08-27T05:22:50.436Z,99.90
2018-08-27T05:25:18.883Z,99.90
2018-08-27T05:27:47.311Z,99.90
2018-08-27T05:30:15.763Z,99.90
2018-08-27T05:32:44.183Z,99.90
2018-08-27T05:35:12.670Z,99.90
2018-08-27T05:37:41.108Z,99.90
2018-08-27T05:40:09.581Z,99.90
2018-08-27T05:42:38.035Z,99.90
2018-08-27T05:45:06.664Z,99.90
2018-08-27T05:47:35.153Z,99.90
2018-08-27T05:50:03.740Z,99.90
2018-08-27T05:52:32.184Z,99.60
2018-08-27T05:55:00.655Z,99.40
2018-08-27T05:57:29.261Z,99.20
2018-08-27T05:59:57.728Z,99.10
2018-08-27T06:02:26.157Z,99.00
2018-08-27T06:04:54.612Z,99.00
2018-08-27T06:07:23.044Z,99.00
2018-08-27T06:09:51.496Z,99.00
2018-08-27T06:12:19.943Z,98.90
2018-08-27T06:14:48.392Z,98.70
2018-08-27T06:17:16.881Z,99.00
2018-08-27T06:19:45.288Z,99.00
2018-08-27T06:22:13.862Z,98.80
2018-08-27T06:24:42.184Z,98.70
2018-08-27T06:27:10.616Z,98.70
2018-08-27T06:29:39.052Z,98.60
2018-08-27T06:32:07.536Z,98.40
2018-08-27T06:34:35.972Z,98.70
2018-08-27T06:37:04.520Z,98.40
2018-08-27T06:39:32.948Z,98.20
2018-08-27T06:42:01.407Z,98.00
2018-08-27T06:44:29.880Z,97.60
2018-08-27T06:46:58.329Z,97.60
2018-08-27T06:49:26.865Z,97.00
2018-08-27T06:51:55.320Z,96.80
2018-08-27T06:54:23.792Z,96.90
2018-08-27T06:56:52.263Z,96.50
2018-08-27T06:59:20.695Z,96.20
2018-08-27T07:01:49.136Z,95.80
2018-08-27T07:04:17.636Z,95.50
2018-08-27T07:06:46.077Z,94.60
2018-08-27T07:09:15.134Z,94.40
2018-08-27T07:11:43.802Z,94.00
2018-08-27T07:14:12.349Z,93.20
2018-08-27T07:16:40.773Z,93.10
2018-08-27T07:19:09.601Z,92.20
2018-08-27T07:21:38.152Z,91.80
2018-08-27T07:24:06.684Z,91.50
2018-08-27T07:26:35.223Z,91.40
2018-08-27T07:29:03.955Z,91.30
2018-08-27T07:31:32.387Z,91.10
2018-08-27T07:34:00.851Z,90.60
2018-08-27T07:36:29.311Z,90.10
2018-08-27T07:38:57.783Z,87.60
2018-08-27T07:41:26.216Z,87.60
2018-08-27T07:43:54.672Z,86.20
2018-08-27T07:46:23.261Z,85.80
2018-08-27T07:48:51.716Z,85.30
2018-08-27T07:51:20.239Z,84.40
2018-08-27T07:53:48.715Z,84.30
2018-08-27T07:56:17.286Z,83.80
2018-08-27T07:58:45.732Z,83.00
2018-08-27T08:01:14.295Z,83.10
2018-08-27T08:03:42.723Z,81.70
2018-08-27T08:06:11.199Z,82.10
2018-08-27T08:08:39.627Z,79.00
2018-08-27T08:11:08.237Z,79.20
2018-08-27T08:13:36.670Z,77.40
2018-08-27T08:16:05.284Z,76.60
2018-08-27T08:18:33.931Z,75.50
2018-08-27T08:21:02.408Z,73.80
2018-08-27T08:23:30.857Z,73.20
2018-08-27T08:25:59.300Z,71.70
2018-08-27T08:28:27.767Z,71.30
2018-08-27T08:30:56.192Z,69.10
2018-08-27T08:33:24.695Z,70.90
2018-08-27T08:35:53.088Z,70.10
2018-08-27T08:38:21.608Z,69.70
2018-08-27T08:40:50.064Z,68.60
2018-08-27T08:43:18.523Z,67.90
2018-08-27T08:45:47.300Z,67.70
2018-08-27T08:48:15.853Z,68.00
2018-08-27T08:50:44.312Z,68.30
2018-08-27T08:53:12.784Z,68.40
2018-08-27T08:55:41.240Z,69.80
2018-08-27T08:58:09.732Z,69.80
2018-08-27T09:00:38.216Z,70.10
2018-08-27T09:03:06.661Z,71.20
2018-08-27T09:05:35.112Z,74.10
2018-08-27T09:08:03.560Z,76.70
2018-08-27T09:10:32.023Z,80.40
2018-08-27T09:13:00.524Z,84.10
2018-08-27T09:15:28.984Z,83.50
2018-08-27T09:17:57.420Z,84.90
2018-08-27T09:20:25.880Z,89.80
2018-08-27T09:22:54.304Z,90.30
2018-08-27T09:25:22.758Z,91.00
2018-08-27T09:27:51.188Z,92.30
2018-08-27T09:30:19.647Z,96.40
2018-08-27T09:32:48.073Z,99.70
2018-08-27T09:35:16.531Z,99.90
2018-08-27T09:37:44.952Z,99.90
2018-08-27T09:40:13.408Z,99.90
2018-08-27T09:42:41.852Z,99.90
2018-08-27T09:45:10.312Z,99.90
2018-08-27T09:47:38.739Z,99.90
2018-08-27T09:50:07.544Z,99.90
2018-08-27T09:52:36.003Z,99.90
2018-08-27T09:55:04.518Z,99.90
2018-08-27T09:57:32.967Z,99.90
2018-08-27T10:00:01.404Z,99.90
2018-08-27T10:02:29.851Z,99.90
2018-08-27T10:04:58.279Z,99.90
2018-08-27T10:07:26.799Z,99.90
2018-08-27T10:09:55.232Z,99.90
2018-08-27T10:12:23.691Z,99.90
2018-08-27T10:14:52.185Z,99.90
2018-08-27T10:17:20.609Z,99.90
2018-08-27T10:19:49.035Z,99.90
2018-08-27T10:22:17.480Z,99.90
2018-08-27T10:24:45.932Z,99.90
2018-08-27T10:27:14.360Z,99.90
2018-08-27T10:29:42.856Z,99.90
2018-08-27T10:32:11.280Z,99.90
2018-08-27T10:34:39.733Z,99.90
2018-08-27T10:37:08.205Z,99.90
2018-08-27T10:39:36.632Z,99.90
2018-08-27T10:42:05.125Z,99.90
2018-08-27T10:44:33.580Z,99.90
2018-08-27T10:47:02.011Z,99.90
2018-08-27T10:49:30.441Z,99.90
2018-08-27T10:51:58.907Z,99.90
2018-08-27T10:54:27.340Z,99.90
2018-08-27T10:56:55.804Z,99.90
2018-08-27T10:59:24.240Z,99.90
2018-08-27T11:01:52.695Z,99.90
2018-08-27T11:04:21.128Z,99.90
2018-08-27T11:06:49.591Z,99.90
2018-08-27T11:09:18.067Z,99.90
2018-08-27T11:11:46.493Z,99.90
2018-08-27T11:14:14.930Z,99.90
2018-08-27T11:16:43.424Z,99.90
2018-08-27T11:19:11.879Z,99.90
2018-08-27T11:21:40.311Z,99.90
2018-08-27T11:24:14.276Z,99.90
2018-08-27T11:26:46.830Z,99.90
2018-08-27T11:29:16.900Z,99.90
2018-08-27T11:31:45.564Z,99.90
2018-08-27T11:34:14.026Z,99.90
2018-08-27T11:36:42.478Z,99.90
2018-08-27T11:39:12.572Z,99.90
2018-08-27T11:41:41.048Z,99.90
2018-08-27T11:44:09.565Z,99.90
2018-08-27T11:46:38.008Z,99.90
2018-08-27T11:49:06.716Z,99.90
2018-08-27T11:51:35.148Z,99.90
2018-08-27T11:54:03.648Z,99.90
2018-08-27T11:56:32.131Z,99.90
2018-08-27T11:59:00.656Z,99.90
2018-08-27T12:01:29.663Z,99.90
2018-08-27T12:03:58.119Z,99.90
2018-08-27T12:06:26.564Z,99.90
2018-08-27T12:08:55.066Z,99.90
2018-08-27T12:11:23.501Z,99.90
2018-08-27T12:13:51.939Z,99.90
2018-08-27T12:16:21.284Z,99.90
2018-08-27T12:18:49.728Z,99.90
2018-08-27T12:21:18.267Z,99.90
2018-08-27T12:23:46.724Z,99.90
2018-08-27T12:26:15.184Z,99.90
2018-08-27T12:28:43.615Z,99.90
2018-08-27T12:31:12.060Z,99.90
2018-08-27T12:33:40.489Z,99.90
2018-08-27T12:36:08.964Z,99.90
2018-08-27T12:38:37.427Z,99.90
2018-08-27T12:41:06.039Z,99.90
2018-08-27T12:43:34.426Z,99.90
2018-08-27T12:46:02.844Z,99.90
2018-08-27T12:48:31.284Z,99.90
2018-08-27T12:50:59.800Z,99.90
2018-08-27T12:53:28.203Z,99.90
2018-08-27T12:55:56.630Z,99.90
2018-08-27T12:58:25.222Z,99.90
2018-08-27T13:00:53.664Z,99.90
2018-08-27T13:03:22.124Z,99.90
2018-08-27T13:05:50.634Z,99.90
2018-08-27T13:08:19.052Z,99.90
2018-08-27T13:10:47.479Z,99.90
2018-08-27T13:13:15.932Z,99.90
2018-08-27T13:15:44.375Z,99.90
2018-08-27T13:18:12.836Z,99.90
2018-08-27T13:20:41.284Z,99.90
2018-08-27T13:23:09.719Z,99.90
2018-08-27T13:25:38.258Z,99.90
2018-08-27T13:28:06.694Z,99.90
2018-08-27T13:30:35.208Z,99.90
2018-08-27T13:33:03.612Z,99.90
2018-08-27T13:35:32.146Z,99.90
2018-08-27T13:38:00.552Z,99.90
2018-08-27T13:40:29.054Z,99.90
2018-08-27T13:42:58.407Z,99.90
2018-08-27T13:45:26.938Z,99.90
2018-08-27T13:47:55.396Z,99.10
2018-08-27T13:50:23.823Z,97.60
2018-08-27T13:52:52.275Z,96.50
2018-08-27T13:55:20.744Z,94.90
2018-08-27T13:57:49.201Z,93.60
2018-08-27T14:00:22.400Z,93.50
2018-08-27T14:02:51.685Z,91.50
2018-08-27T14:05:20.205Z,91.10
2018-08-27T14:07:48.596Z,90.20
2018-08-27T14:10:17.020Z,90.50
2018-08-27T14:12:46.894Z,91.00
2018-08-27T14:15:15.699Z,91.10
2018-08-27T14:17:44.160Z,90.40
2018-08-27T14:20:13.688Z,90.00
2018-08-27T14:22:42.898Z,88.60
2018-08-27T14:25:11.369Z,86.60
2018-08-27T14:27:39.841Z,84.80
2018-08-27T14:30:08.359Z,82.90
2018-08-27T14:32:36.788Z,81.20
2018-08-27T14:35:05.284Z,81.50
2018-08-27T14:37:33.744Z,83.10
2018-08-27T14:40:02.209Z,84.90
2018-08-27T14:42:30.662Z,87.10
2018-08-27T14:44:59.182Z,87.60
2018-08-27T14:47:27.572Z,89.80
2018-08-27T14:49:56.001Z,90.10
2018-08-27T14:52:24.465Z,90.10
2018-08-27T14:54:52.899Z,91.10
2018-08-27T14:57:21.355Z,91.40
2018-08-27T14:59:49.784Z,91.80
2018-08-27T15:02:18.244Z,92.30
2018-08-27T15:04:46.677Z,92.80
2018-08-27T15:07:15.176Z,93.30
2018-08-27T15:09:43.718Z,93.50
2018-08-27T15:12:12.066Z,93.20
2018-08-27T15:14:40.520Z,93.70
2018-08-27T15:17:08.989Z,94.40
2018-08-27T15:19:37.444Z,94.70
2018-08-27T15:22:05.983Z,94.80
2018-08-27T15:24:34.440Z,94.90
2018-08-27T15:27:02.883Z,95.40
2018-08-27T15:29:31.344Z,95.50
2018-08-27T15:31:59.779Z,95.80
2018-08-27T15:34:28.216Z,96.00
2018-08-27T15:36:56.679Z,96.10
2018-08-27T15:39:25.107Z,96.20
2018-08-27T15:41:53.564Z,95.90
2018-08-27T15:44:22.043Z,96.20
2018-08-27T15:46:50.478Z,96.50
2018-08-27T15:49:18.936Z,96.70
2018-08-27T15:51:47.380Z,97.10
2018-08-27T15:54:15.891Z,97.70
2018-08-27T15:56:44.333Z,98.40
2018-08-27T15:59:12.795Z,98.80
2018-08-27T16:01:41.255Z,99.20
2018-08-27T16:04:09.714Z,99.90
2018-08-27T16:06:38.184Z,99.90
2018-08-27T16:09:06.939Z,99.90
2018-08-27T16:11:35.400Z,99.90
2018-08-27T16:14:03.848Z,99.90
2018-08-27T16:16:32.321Z,99.90
2018-08-27T16:19:00.764Z,99.90
2018-08-27T16:21:29.212Z,99.90
2018-08-27T16:23:57.772Z,99.90
2018-08-27T16:26:26.248Z,99.90
2018-08-27T16:28:54.712Z,99.90
2018-08-27T16:31:23.149Z,99.90
2018-08-27T16:33:51.620Z,99.90
2018-08-27T16:36:20.056Z,99.90
2018-08-27T16:38:48.520Z,99.90
2018-08-27T16:41:16.992Z,99.90
2018-08-27T16:43:45.476Z,99.90
2018-08-27T16:46:13.968Z,99.90
2018-08-27T16:48:42.395Z,99.90
2018-08-27T16:51:11.707Z,99.90
2018-08-27T16:53:40.127Z,99.90
2018-08-27T16:56:08.600Z,99.90
2018-08-27T16:58:37.064Z,99.90
2018-08-27T17:01:05.856Z,99.90
2018-08-27T17:03:34.309Z,99.90
2018-08-27T17:06:02.736Z,99.90
2018-08-27T17:08:31.192Z,99.90
2018-08-27T17:10:59.617Z,99.90
2018-08-27T17:13:28.044Z,99.90
2018-08-27T17:15:56.505Z,99.90
2018-08-27T17:18:24.940Z,99.90
2018-08-27T17:20:53.391Z,99.90
2018-08-27T17:23:21.835Z,99.90
2018-08-27T17:25:50.320Z,99.90
2018-08-27T17:28:18.761Z,99.90
2018-08-27T17:30:47.213Z,99.90
2018-08-27T17:33:15.735Z,99.90
2018-08-27T17:35:44.186Z,99.90
2018-08-27T17:38:12.632Z,99.90
2018-08-27T17:40:41.077Z,99.90
2018-08-27T17:43:09.540Z,99.90
2018-08-27T17:45:38.010Z,99.90
2018-08-27T17:48:06.467Z,99.90
2018-08-27T17:50:34.927Z,99.90
2018-08-27T17:53:03.364Z,99.90
2018-08-27T17:55:31.824Z,99.90
2018-08-27T17:58:00.297Z,99.90
2018-08-27T18:00:28.736Z,99.90
2018-08-27T18:02:57.167Z,99.90
2018-08-27T18:05:25.640Z,99.90
2018-08-27T18:07:54.079Z,99.90
2018-08-27T18:10:23.512Z,99.90
2018-08-27T18:12:51.963Z,99.90
2018-08-27T18:15:20.408Z,99.90
2018-08-27T18:17:48.884Z,99.90
2018-08-27T18:20:17.324Z,99.90
2018-08-27T18:22:45.788Z,99.90
2018-08-27T18:25:14.254Z,99.90
2018-08-27T18:27:42.668Z,99.90
2018-08-27T18:30:11.568Z,99.90
2018-08-27T18:32:40.028Z,99.90
2018-08-27T18:35:08.516Z,99.90
2018-08-27T18:37:36.956Z,99.90
2018-08-27T18:40:05.704Z,99.90
2018-08-27T18:42:34.156Z,99.90
2018-08-27T18:45:02.649Z,99.90
2018-08-27T18:47:31.092Z,99.90
2018-08-27T18:49:59.556Z,99.90
2018-08-27T18:52:27.991Z,99.90
2018-08-27T18:54:56.476Z,99.90
2018-08-27T18:57:24.931Z,99.90
2018-08-27T18:59:53.359Z,99.90
2018-08-27T19:02:21.898Z,99.90
2018-08-27T19:04:50.334Z,99.90
2018-08-27T19:07:18.814Z,99.90
2018-08-27T19:09:47.270Z,99.90
2018-08-27T19:12:15.711Z,99.90
2018-08-27T19:14:44.184Z,99.90
2018-08-27T19:17:12.632Z,99.90
2018-08-27T19:19:41.103Z,99.90
2018-08-27T19:22:09.572Z,99.90
2018-08-27T19:24:38.117Z,99.90
2018-08-27T19:27:06.761Z,99.90
2018-08-27T19:29:35.196Z,99.90
2018-08-27T19:32:03.668Z,99.90
2018-08-27T19:34:32.228Z,99.90
2018-08-27T19:37:00.773Z,99.90
2018-08-27T19:39:29.182Z,99.90
2018-08-27T19:41:57.633Z,99.90
2018-08-27T19:44:26.079Z,99.90
2018-08-27T19:46:54.537Z,99.90
2018-08-27T19:49:22.993Z,99.90
2018-08-27T19:51:51.440Z,99.90
2018-08-27T19:54:19.904Z,99.90
2018-08-27T19:56:48.344Z,99.90
2018-08-27T19:59:16.802Z,99.90
2018-08-27T20:01:45.243Z,99.90
2018-08-27T20:04:13.700Z,99.90
2018-08-27T20:06:42.147Z,99.90
2018-08-27T20:09:10.609Z,99.90
2018-08-27T20:11:39.064Z,99.90
2018-08-27T20:14:07.512Z,99.90
2018-08-27T20:16:36.151Z,99.90
2018-08-27T20:19:04.497Z,99.90
2018-08-27T20:21:32.969Z,99.90
2018-08-27T20:24:01.406Z,99.90
2018-08-27T20:26:29.831Z,99.90
2018-08-27T20:28:58.312Z,99.90
2018-08-27T20:31:26.763Z,99.90
2018-08-27T20:33:55.231Z,99.90
2018-08-27T20:36:23.664Z,99.90
2018-08-27T20:38:52.175Z,99.90
2018-08-27T20:41:20.600Z,99.90
2018-08-27T20:43:49.082Z,99.90
2018-08-27T20:46:17.523Z,99.90
2018-08-27T20:48:45.964Z,99.90
2018-08-27T20:51:14.438Z,99.90
2018-08-27T20:53:42.875Z,99.90
2018-08-27T20:56:11.335Z,99.90
2018-08-27T20:58:39.792Z,99.90
2018-08-27T21:01:08.245Z,99.90
2018-08-27T21:03:36.689Z,99.90
2018-08-27T21:06:05.261Z,99.90
2018-08-27T21:08:33.736Z,99.90
2018-08-27T21:11:02.309Z,99.90
2018-08-27T21:13:30.767Z,99.90
2018-08-27T21:15:59.203Z,99.90
2018-08-27T21:18:27.656Z,99.90
2018-08-27T21:20:56.184Z,99.90
2018-08-27T21:23:24.740Z,99.90
2018-08-27T21:25:53.180Z,99.90
2018-08-27T21:28:21.723Z,99.90
2018-08-27T21:30:50.188Z,99.90
2018-08-27T21:33:18.802Z,99.90
2018-08-27T21:35:47.283Z,99.90
2018-08-27T21:38:15.719Z,99.90
2018-08-27T21:40:44.196Z,99.90
2018-08-27T21:43:12.638Z,99.90
2018-08-27T21:45:41.076Z,99.90
2018-08-27T21:48:09.582Z,99.90
2018-08-27T21:50:38.040Z,99.90
2018-08-27T21:53:06.597Z,99.90
2018-08-27T21:55:35.012Z,99.90
2018-08-27T21:58:03.479Z,99.90
2018-08-27T22:00:32.003Z,99.90
2018-08-27T22:03:05.886Z,99.90
2018-08-27T22:05:34.356Z,99.90
2018-08-27T22:08:02.808Z,99.90
2018-08-27T22:10:31.287Z,99.90
2018-08-27T22:12:59.748Z,99.90
2018-08-27T22:15:28.276Z,99.90
2018-08-27T22:17:56.720Z,99.90
2018-08-27T22:20:25.200Z,99.90
2018-08-27T22:22:53.640Z,99.90
2018-08-27T22:25:22.077Z,99.90
2018-08-27T22:27:50.563Z,99.90
2018-08-27T22:30:19.014Z,99.90
2018-08-27T22:32:47.535Z,99.90
2018-08-27T22:35:15.964Z,99.90
2018-08-27T22:37:44.425Z,99.90
2018-08-27T22:40:12.876Z,99.90
2018-08-27T22:42:41.315Z,99.90
2018-08-27T22:45:09.792Z,99.90
2018-08-27T22:47:38.224Z,99.90
2018-08-27T22:50:06.860Z,99.90
2018-08-27T22:52:35.356Z,99.90
2018-08-27T22:55:03.856Z,99.90
2018-08-27T22:57:32.323Z,99.90
2018-08-27T23:00:00.796Z,99.90
2018-08-27T23:02:34.605Z,99.90
2018-08-27T23:05:03.069Z,99.90
2018-08-27T23:07:31.543Z,99.90
2018-08-27T23:09:59.975Z,99.90
2018-08-27T23:12:28.447Z,99.90
2018-08-27T23:14:56.892Z,99.90
2018-08-27T23:17:25.339Z,99.90
2018-08-27T23:19:53.792Z,99.90
2018-08-27T23:22:22.251Z,99.90
2018-08-27T23:24:50.699Z,99.90
2018-08-27T23:27:19.164Z,99.90
2018-08-27T23:29:47.619Z,99.90
2018-08-27T23:32:16.068Z,99.90
2018-08-27T23:34:44.527Z,99.90
2018-08-27T23:37:12.975Z,99.90
2018-08-27T23:39:41.512Z,99.90
2018-08-27T23:42:09.940Z,99.90
2018-08-27T23:44:38.375Z,99.90
2018-08-27T23:47:06.892Z,99.90
2018-08-27T23:49:35.348Z,99.90
2018-08-27T23:52:03.812Z,99.90
2018-08-27T23:54:32.251Z,99.90
2018-08-27T23:57:00.697Z,99.90
2018-08-27T23:59:29.156Z,99.90
